Time;durP1;ratioP1;P1;durP2;ratioP2;P2;SDS_P1;SDS_P2;PMS_P1;PMS_P2;Temp;Humidity;BMP_temperature;BMP_pressure;BME280_temperature;BME280_humidity;BME280_pressure;Samples;Min_cycle;Max_cycle;Signal;HPM_P1;HPM_P2
2021/01/11 00:02:19;;;;;;;35.55;16.17;;;;;;;-1.78;92.42;101371.94;1695831;82;29020;-74
2021/01/11 00:04:45;;;;;;;46.80;18.75;;;;;;;-1.78;92.44;101378.94;1687418;82;25993;-72
2021/01/11 00:07:11;;;;;;;43.70;18.32;;;;;;;-1.81;92.38;101374.52;1695148;82;30538;-73
2021/01/11 00:09:39;;;;;;;35.55;17.50;;;;;;;-1.78;92.42;101377.62;1683830;82;25858;-72
2021/01/11 00:12:06;;;;;;;44.25;19.37;;;;;;;-1.80;92.42;101366.20;1693011;82;25842;-72
2021/01/11 00:14:35;;;;;;;45.50;19.67;;;;;;;-1.81;92.40;101360.06;1687798;82;28316;-72
2021/01/11 00:17:01;;;;;;;55.05;22.80;;;;;;;-1.80;92.42;101360.95;1687317;82;25877;-73
2021/01/11 00:19:29;;;;;;;53.90;21.45;;;;;;;-1.79;92.43;101360.97;1692858;82;25847;-74
2021/01/11 00:21:55;;;;;;;48.08;18.12;;;;;;;-1.79;92.39;101360.09;1698531;82;25866;-73
2021/01/11 00:24:20;;;;;;;49.55;21.05;;;;;;;-1.79;92.42;101364.91;1684018;82;26024;-73
2021/01/11 00:26:52;;;;;;;50.98;20.90;;;;;;;-1.82;92.41;101360.03;1691747;82;27268;-72
2021/01/11 00:29:22;;;;;;;54.30;20.97;;;;;;;-1.83;92.42;101353.89;1697888;82;26095;-74
2021/01/11 00:31:51;;;;;;;47.17;19.48;;;;;;;-1.85;92.42;101359.55;1686780;82;27432;-74
2021/01/11 00:34:18;;;;;;;51.60;20.12;;;;;;;-1.85;92.42;101358.66;1692199;82;25820;-73
2021/01/11 00:36:50;;;;;;;47.43;20.10;;;;;;;-1.87;92.44;101357.75;1697232;82;25833;-73
2021/01/11 00:39:16;;;;;;;58.42;23.32;;;;;;;-1.87;92.44;101357.32;1696964;82;27408;-74
2021/01/11 00:41:41;;;;;;;55.40;22.00;;;;;;;-1.88;92.45;101357.29;1691916;82;33064;-73
2021/01/11 00:44:07;;;;;;;53.02;21.37;;;;;;;-1.89;92.45;101360.34;1684364;82;30917;-73
2021/01/11 00:46:33;;;;;;;56.98;21.73;;;;;;;-1.88;92.46;101366.06;1698002;82;25799;-73
2021/01/11 00:49:01;;;;;;;57.60;22.17;;;;;;;-1.89;92.43;101364.29;1691667;82;26556;-74
2021/01/11 00:51:30;;;;;;;52.62;22.25;;;;;;;-1.89;92.44;101350.27;1701351;82;27579;-74
2021/01/11 00:53:56;;;;;;;46.80;19.92;;;;;;;-1.88;92.45;101354.23;1687810;82;26451;-73
2021/01/11 00:56:21;;;;;;;62.43;23.77;;;;;;;-1.87;92.44;101348.55;1676514;82;31005;-73
2021/01/11 00:58:47;;;;;;;54.83;21.42;;;;;;;-1.89;92.45;101356.41;1684822;82;26339;-72
2021/01/11 01:01:15;;;;;;;54.00;22.95;;;;;;;-1.88;92.44;101354.23;1686964;82;26077;-73
2021/01/11 01:03:42;;;;;;;58.95;22.07;;;;;;;-1.89;92.46;101354.20;1680623;82;27509;-73
2021/01/11 01:06:12;;;;;;;57.88;23.02;;;;;;;-1.91;92.45;101361.17;1696770;82;26148;-73
2021/01/11 01:08:38;;;;;;;57.30;20.92;;;;;;;-1.92;92.43;101356.34;1697032;82;26024;-73
2021/01/11 01:11:05;;;;;;;56.92;20.62;;;;;;;-1.92;92.44;101359.41;1697939;82;25873;-73
2021/01/11 01:13:31;;;;;;;58.05;22.25;;;;;;;-1.93;92.36;101357.20;1699046;82;25882;-73
2021/01/11 01:15:57;;;;;;;59.25;24.12;;;;;;;-1.95;92.37;101356.29;1675730;82;27613;-73
2021/01/11 01:18:22;;;;;;;53.90;21.97;;;;;;;-1.97;92.41;101348.38;1696961;82;33477;-72
2021/01/11 01:20:48;;;;;;;58.48;22.93;;;;;;;-1.98;92.41;101349.23;1690360;82;30523;-73
2021/01/11 01:23:14;;;;;;;55.45;23.35;;;;;;;-1.97;92.41;101348.81;1688396;82;25858;-72
2021/01/11 01:25:39;;;;;;;53.65;21.82;;;;;;;-1.99;92.40;101344.84;1697891;82;26023;-72
2021/01/11 01:28:07;;;;;;;57.10;22.15;;;;;;;-2.01;92.37;101345.67;1684404;82;27428;-73
2021/01/11 01:30:33;;;;;;;62.65;24.75;;;;;;;-2.02;92.38;101342.59;1679391;82;25874;-73
2021/01/11 01:32:59;;;;;;;58.08;23.85;;;;;;;-2.03;92.40;101346.95;1693506;82;26698;-73
2021/01/11 01:35:26;;;;;;;55.63;24.02;;;;;;;-2.05;92.37;101337.27;1689636;82;35080;-73
2021/01/11 01:37:51;;;;;;;45.08;18.60;;;;;;;-2.06;92.39;101339.44;1682940;82;26130;-72
2021/01/11 01:40:17;;;;;;;57.25;21.93;;;;;;;-2.06;92.39;101340.76;1704383;82;28248;-72
2021/01/11 01:42:44;;;;;;;55.25;21.87;;;;;;;-2.09;92.39;101339.39;1707159;82;26204;-73
2021/01/11 01:45:11;;;;;;;63.60;21.37;;;;;;;-2.09;92.41;101335.02;1703875;82;25873;-73
2021/01/11 01:47:37;;;;;;;59.15;22.27;;;;;;;-2.09;92.42;101340.70;1668576;83;26191;-72
2021/01/11 01:50:07;;;;;;;54.67;21.15;;;;;;;-2.10;92.40;101333.67;1697432;82;26449;-72
2021/01/11 01:52:38;;;;;;;52.98;21.25;;;;;;;-2.14;92.41;101331.42;1694775;82;28177;-74
2021/01/11 01:55:09;;;;;;;48.90;20.05;;;;;;;-2.14;92.41;101326.17;1697626;82;26993;-73
2021/01/11 01:57:35;;;;;;;;;;;;;;;-2.13;92.43;101327.05;1709180;82;25864;-72
2021/01/11 02:00:07;;;;;;;55.80;22.40;;;;;;;-2.14;92.44;101331.42;1705837;82;26471;-72
2021/01/11 02:02:33;;;;;;;60.05;21.33;;;;;;;-2.15;92.47;101331.39;1709093;82;25855;-72
2021/01/11 02:04:59;;;;;;;62.27;22.75;;;;;;;-2.16;92.48;101330.50;1703931;82;27942;-73
2021/01/11 02:07:51;;;;;;;48.33;19.35;;;;;;;-2.19;92.45;101329.56;1702310;82;33039;-73
2021/01/11 02:10:25;;;;;;;58.87;22.67;;;;;;;-2.18;92.46;101326.08;1673534;82;25909;-74
2021/01/11 02:13:14;;;;;;;49.50;20.80;;;;;;;-2.19;92.45;101330.45;1702920;82;26218;-72
2021/01/11 02:16:06;;;;;;;60.58;22.48;;;;;;;-2.20;92.46;101338.30;1700782;82;25919;-76
2021/01/11 02:19:12;;;;;;;58.00;22.05;;;;;;;-2.20;92.46;101343.13;1699630;82;25968;-76
2021/01/11 02:22:09;;;;;;;66.30;25.88;;;;;;;-2.19;92.39;101336.13;1688867;82;25923;-74
2021/01/11 02:25:19;;;;;;;60.12;22.15;;;;;;;-2.17;92.45;101326.11;1696510;82;25795;-73
2021/01/11 02:27:58;;;;;;;55.05;22.55;;;;;;;-2.15;92.46;101322.20;1692601;82;25993;-73
2021/01/11 02:30:34;;;;;;;63.87;23.65;;;;;;;-2.15;92.49;101309.07;1708203;82;25763;-73
2021/01/11 02:33:07;;;;;;;59.55;21.68;;;;;;;-2.14;92.48;101311.72;1712095;82;25761;-73
2021/01/11 02:36:02;;;;;;;55.85;22.58;;;;;;;-2.12;92.48;101311.33;1696947;82;25852;-73
2021/01/11 02:38:29;;;;;;;58.75;21.75;;;;;;;-2.12;92.47;101306.07;1664736;84;25884;-72
2021/01/11 02:40:56;;;;;;;55.70;22.48;;;;;;;-2.12;92.47;101311.33;1647061;84;25770;-72
2021/01/11 02:43:22;;;;;;;53.58;22.00;;;;;;;-2.11;92.48;101309.58;1646403;84;25871;-72
2021/01/11 02:45:50;;;;;;;51.60;21.95;;;;;;;-2.11;92.47;101305.64;1650725;84;27597;-76
2021/01/11 02:48:24;;;;;;;46.15;18.60;;;;;;;-2.11;92.45;101308.27;1663557;84;25870;-76
2021/01/11 02:51:19;;;;;;;51.37;20.60;;;;;;;-2.12;92.43;101305.19;1618557;86;26111;-76
2021/01/11 02:54:02;;;;;;;48.80;19.52;;;;;;;-2.13;92.43;101311.30;1684473;82;25811;-76
2021/01/11 02:56:54;;;;;;;57.38;21.65;;;;;;;-2.16;92.44;101301.63;1660488;82;26121;-79
2021/01/11 02:59:34;;;;;;;50.30;19.73;;;;;;;-2.16;92.44;101294.17;1707213;82;28622;-76
2021/01/11 03:02:09;;;;;;;45.90;18.90;;;;;;;-2.19;92.43;101291.48;1679855;82;26654;-78
2021/01/11 03:04:38;;;;;;;48.95;18.87;;;;;;;-2.22;92.44;101289.69;1708235;82;25951;-76
2021/01/11 03:07:08;;;;;;;41.92;17.35;;;;;;;-2.22;92.43;101287.48;1688486;82;26743;-77
2021/01/11 03:09:40;;;;;;;46.60;19.62;;;;;;;-2.22;92.43;101280.50;1689497;82;25853;-76
2021/01/11 03:12:07;;;;;;;47.90;18.57;;;;;;;-2.24;92.43;101282.64;1709019;82;27375;-78
2021/01/11 03:14:35;;;;;;;46.77;18.48;;;;;;;-2.23;92.46;101284.41;1697684;82;25991;-76
2021/01/11 03:17:01;;;;;;;54.03;19.75;;;;;;;-2.24;92.47;101283.52;1698330;82;25815;-76
2021/01/11 03:19:27;;;;;;;46.48;18.12;;;;;;;-2.22;92.43;101276.98;1655421;83;25780;-76
2021/01/11 03:21:54;;;;;;;46.58;18.12;;;;;;;-2.24;92.37;101275.64;1684870;82;25817;-76
2021/01/11 03:24:27;;;;;;;49.45;19.75;;;;;;;-2.23;92.42;101281.35;1700493;82;25882;-76
2021/01/11 03:27:00;;;;;;;46.08;16.93;;;;;;;-2.22;92.29;101281.81;1648716;84;25827;-77
2021/01/11 03:29:30;;;;;;;42.27;17.30;;;;;;;-2.21;92.34;101273.50;1646274;84;25870;-76
2021/01/11 03:31:58;;;;;;;44.35;17.80;;;;;;;-2.21;92.38;101273.50;1641781;85;26635;-76
2021/01/11 03:34:27;;;;;;;40.90;17.85;;;;;;;-2.22;92.36;101270.42;1661839;83;25966;-77
2021/01/11 03:36:53;;;;;;;49.23;18.65;;;;;;;-2.24;92.36;101267.77;1640600;84;26390;-77
2021/01/11 03:39:20;;;;;;;41.65;17.27;;;;;;;-2.24;92.32;101268.20;1614644;85;33041;-77
2021/01/11 03:41:46;;;;;;;41.08;16.77;;;;;;;-2.23;92.32;101263.41;1691639;82;25916;-76
2021/01/11 03:44:12;;;;;;;44.38;18.07;;;;;;;-2.23;92.31;101259.46;1679007;82;35095;-76
2021/01/11 03:46:38;;;;;;;48.80;18.60;;;;;;;-2.24;92.32;101256.38;1674457;82;25949;-76
2021/01/11 03:49:07;;;;;;;45.30;16.82;;;;;;;-2.25;92.30;101257.23;1661771;83;26078;-76
2021/01/11 03:51:33;;;;;;;43.48;18.10;;;;;;;-2.28;92.28;101252.81;1685507;82;25862;-76
2021/01/11 03:54:00;;;;;;;49.98;19.70;;;;;;;-2.29;92.27;101257.18;1666460;83;30559;-76
2021/01/11 03:56:26;;;;;;;49.18;17.95;;;;;;;-2.30;92.26;101247.53;1665080;82;25785;-76
2021/01/11 03:58:52;;;;;;;50.65;18.80;;;;;;;-2.31;92.29;101244.45;1684737;82;26585;-76
2021/01/11 04:01:18;;;;;;;39.98;16.55;;;;;;;-2.32;92.24;101236.13;1685792;82;28007;-76
2021/01/11 04:03:43;;;;;;;39.30;16.40;;;;;;;-2.34;92.23;101232.58;1672634;82;33014;-76
2021/01/11 04:06:09;;;;;;;39.55;16.77;;;;;;;-2.35;92.23;101230.81;1700020;82;31069;-79
2021/01/11 04:08:35;;;;;;;40.55;16.00;;;;;;;-2.35;92.23;101224.25;1688522;82;25982;-76
2021/01/11 04:11:00;;;;;;;43.28;18.25;;;;;;;-2.36;92.25;101225.11;1680592;82;25893;-76
2021/01/11 04:13:26;;;;;;;34.35;14.78;;;;;;;-2.35;92.24;101229.92;1698832;82;27157;-76
2021/01/11 04:15:54;;;;;;;42.62;17.50;;;;;;;-2.36;92.23;101231.67;1684382;82;33011;-76
2021/01/11 04:18:19;;;;;;;41.00;16.67;;;;;;;-2.36;92.23;101224.22;1689759;82;26008;-76
2021/01/11 04:20:45;;;;;;;37.48;15.43;;;;;;;-2.38;92.20;101218.06;1687812;82;33583;-76
2021/01/11 04:23:12;;;;;;;40.25;15.43;;;;;;;-2.39;92.18;101222.85;1666562;82;26052;-76
2021/01/11 04:25:37;;;;;;;39.10;16.55;;;;;;;-2.39;92.16;101217.60;1671241;82;27601;-76
2021/01/11 04:28:05;;;;;;;50.58;16.27;;;;;;;-2.40;92.18;101221.09;1677917;82;34041;-76
2021/01/11 04:30:31;;;;;;;40.63;15.78;;;;;;;-2.43;92.19;101220.59;1688299;82;26533;-76
2021/01/11 04:32:58;;;;;;;40.43;14.95;;;;;;;-2.43;92.21;101216.66;1695515;82;26299;-76
2021/01/11 04:35:28;;;;;;;42.95;16.90;;;;;;;-2.45;92.20;101222.31;1655685;83;25994;-76
2021/01/11 04:37:56;;;;;;;42.73;15.90;;;;;;;-2.46;92.19;101220.97;1685836;82;26198;-75
2021/01/11 04:40:23;;;;;;;36.93;14.33;;;;;;;-2.45;92.19;101220.11;1691983;82;25869;-78
2021/01/11 04:42:57;;;;;;;41.02;17.12;;;;;;;-2.46;92.20;101221.86;1665321;83;27370;-75
2021/01/11 04:45:24;;;;;;;38.98;15.43;;;;;;;-2.47;92.16;101218.78;1697744;82;26686;-78
2021/01/11 04:47:55;;;;;;;36.15;14.60;;;;;;;-2.48;92.16;101215.69;1693817;82;25960;-75
2021/01/11 04:50:25;;;;;;;43.92;16.10;;;;;;;-2.48;92.15;101214.81;1685289;82;26527;-76
2021/01/11 04:52:51;;;;;;;36.65;15.65;;;;;;;-2.48;92.15;101220.94;1668167;84;26186;-76
2021/01/11 04:55:19;;;;;;;34.60;15.23;;;;;;;-2.47;92.18;101213.53;1674691;82;25782;-75
2021/01/11 04:57:59;;;;;;;38.17;14.25;;;;;;;-2.48;92.16;101214.38;1696699;82;25954;-75
2021/01/11 05:00:30;;;;;;;35.88;15.35;;;;;;;-2.49;92.15;101213.92;1696132;82;25919;-76
2021/01/11 05:03:00;;;;;;;37.63;16.15;;;;;;;-2.50;92.13;101208.22;1694241;82;27571;-75
2021/01/11 05:05:30;;;;;;;33.40;13.58;;;;;;;-2.48;92.16;101210.88;1669327;82;26001;-76
2021/01/11 05:07:58;;;;;;;39.35;15.88;;;;;;;-2.49;92.15;101207.36;1636253;84;25951;-75
2021/01/11 05:10:31;;;;;;;37.53;15.20;;;;;;;-2.50;92.12;101202.97;1690422;82;25840;-76
2021/01/11 05:13:01;;;;;;;37.53;15.20;;;;;;;-2.50;92.10;101193.78;1646805;84;25855;-75
2021/01/11 05:15:36;;;;;;;37.50;14.13;;;;;;;-2.50;92.10;101195.52;1684619;82;27577;-75
2021/01/11 05:18:16;;;;;;;37.88;14.55;;;;;;;-2.51;92.12;101193.33;1706745;82;25885;-78
2021/01/11 05:20:43;;;;;;;39.58;15.88;;;;;;;-2.51;92.10;101192.02;1703946;82;26019;-76
2021/01/11 05:23:14;;;;;;;44.73;16.27;;;;;;;-2.51;92.11;101188.51;1682184;82;26659;-77
2021/01/11 05:25:44;;;;;;;35.60;14.63;;;;;;;-2.50;92.09;101183.72;1671894;82;25920;-75
2021/01/11 05:28:20;;;;;;;33.48;14.45;;;;;;;-2.51;92.03;101186.77;1703747;82;25855;-78
2021/01/11 05:30:51;;;;;;;37.53;14.65;;;;;;;-2.51;92.07;101180.20;1693568;82;26024;-76
2021/01/11 05:33:28;;;;;;;34.20;15.03;;;;;;;-2.49;92.08;101186.37;1693459;82;26410;-76
2021/01/11 05:36:12;;;;;;;43.55;16.57;;;;;;;-2.49;92.06;101181.55;1693325;82;25944;-76
2021/01/11 05:38:45;;;;;;;32.33;12.05;;;;;;;-2.48;92.04;101185.51;1696702;82;25981;-76
2021/01/11 05:41:22;;;;;;;37.75;14.10;;;;;;;-2.49;92.05;101174.55;1679576;81;26400;-76
2021/01/11 05:44:14;;;;;;;33.23;15.03;;;;;;;-2.48;92.02;101168.87;1696069;81;26057;-75
2021/01/11 05:46:40;;;;;;;;;;;;;;;-2.48;92.05;101172.39;1708362;81;25814;-76
2021/01/11 05:49:16;;;;;;;34.05;13.60;;;;;;;-2.49;92.04;101173.24;1714784;81;25611;-75
2021/01/11 05:51:44;;;;;;;37.53;14.73;;;;;;;-2.52;92.01;101174.50;1697642;81;26715;-78
2021/01/11 05:54:28;;;;;;;39.05;15.03;;;;;;;-2.52;91.97;101175.81;1691650;83;25929;-76
2021/01/11 05:56:56;;;;;;;30.90;13.95;;;;;;;-2.53;91.98;101179.72;1701090;81;26151;-75
2021/01/11 05:59:25;;;;;;;34.95;14.03;;;;;;;-2.52;91.95;101178.86;1682554;83;25875;-77
2021/01/11 06:02:04;;;;;;;35.60;14.30;;;;;;;-2.55;91.95;101187.56;1699638;81;26503;-78
2021/01/11 06:04:31;;;;;;;35.50;14.33;;;;;;;-2.56;91.91;101178.35;1704390;81;25907;-76
2021/01/11 06:07:00;;;;;;;37.98;14.65;;;;;;;-2.59;91.93;101176.56;1709582;81;27972;-76
2021/01/11 06:09:28;;;;;;;32.20;14.18;;;;;;;-2.60;91.93;101180.50;1712771;81;26040;-76
2021/01/11 06:12:00;;;;;;;40.65;15.80;;;;;;;-2.60;91.91;101178.76;1708933;81;25944;-76
2021/01/11 06:14:28;;;;;;;37.58;16.32;;;;;;;-2.62;91.91;101180.05;1673414;81;26109;-76
2021/01/11 06:16:53;;;;;;;43.87;16.62;;;;;;;-2.62;91.90;101174.80;1702988;81;25870;-76
2021/01/11 06:19:23;;;;;;;37.10;14.87;;;;;;;-2.63;91.90;101174.77;1678970;83;28470;-76
2021/01/11 06:21:51;;;;;;;39.53;16.10;;;;;;;-2.63;91.90;101173.45;1710555;81;25888;-78
2021/01/11 06:24:19;;;;;;;41.60;15.10;;;;;;;-2.64;91.85;101172.57;1709533;81;30509;-76
2021/01/11 06:26:45;;;;;;;40.30;14.85;;;;;;;-2.65;91.86;101176.05;1716998;81;26355;-76
2021/01/11 06:29:32;;;;;;;37.38;16.20;;;;;;;-2.66;91.85;101177.33;1720597;81;26016;-76
2021/01/11 06:32:18;;;;;;;43.13;16.27;;;;;;;-2.68;91.81;101175.11;1697960;81;27418;-77
2021/01/11 06:34:47;;;;;;;41.00;14.80;;;;;;;-2.70;91.85;101176.39;1707047;81;26375;-75
2021/01/11 06:37:21;;;;;;;38.30;15.65;;;;;;;-2.70;91.84;101184.69;1713213;81;25867;-76
2021/01/11 06:39:50;;;;;;;36.15;15.63;;;;;;;-2.72;91.81;101174.17;1676503;83;25854;-78
2021/01/11 06:42:18;;;;;;;37.28;14.43;;;;;;;-2.71;91.83;101181.61;1672927;83;26365;-75
2021/01/11 06:44:49;;;;;;;34.00;14.23;;;;;;;-2.71;91.85;101175.05;1674565;82;27501;-75
2021/01/11 06:47:28;;;;;;;;;;;;;;;-2.71;91.87;101168.49;1717404;82;25976;-76
2021/01/11 06:50:09;;;;;;;32.78;13.53;;;;;;;-2.73;91.84;101169.77;1692838;82;25944;-76
2021/01/11 06:52:37;;;;;;;37.03;15.48;;;;;;;-2.74;91.90;101165.38;1706914;82;26039;-78
2021/01/11 06:55:16;;;;;;;39.88;16.52;;;;;;;-2.70;91.93;101169.83;1708204;82;25890;-74
2021/01/11 06:57:48;;;;;;;56.77;16.87;;;;;;;-2.68;91.91;101166.81;1697316;82;27393;-78
2021/01/11 07:00:19;;;;;;;40.00;16.17;;;;;;;-2.65;91.90;101169.92;1710552;82;25932;-75
2021/01/11 07:02:45;;;;;;;49.98;16.40;;;;;;;-2.62;91.91;101172.59;1712726;82;26485;-78
2021/01/11 07:05:36;;;;;;;39.95;15.48;;;;;;;-2.62;91.90;101171.28;1712140;82;25866;-77
2021/01/11 07:08:16;;;;;;;43.58;15.63;;;;;;;-2.57;91.88;101169.59;1710627;82;25926;-76
2021/01/11 07:10:44;;;;;;;32.70;14.15;;;;;;;-2.55;91.80;101163.95;1706212;82;27421;-78
2021/01/11 07:13:20;;;;;;;45.43;16.67;;;;;;;-2.49;91.84;101165.80;1687336;82;26511;-75
2021/01/11 07:16:00;;;;;;;34.50;14.90;;;;;;;-2.46;91.84;101166.73;1709047;82;26524;-77
2021/01/11 07:18:41;;;;;;;36.53;14.87;;;;;;;-2.42;91.83;101162.42;1672382;83;26286;-77
2021/01/11 07:21:12;;;;;;;35.17;15.32;;;;;;;-2.39;91.80;101163.79;1683463;83;25914;-80
2021/01/11 07:23:39;;;;;;;36.75;14.33;;;;;;;-2.35;91.78;101156.42;1706863;82;27474;-80
2021/01/11 07:26:21;;;;;;;34.65;14.28;;;;;;;-2.31;91.82;101156.93;1711776;82;26023;-80
2021/01/11 07:28:59;;;;;;;42.53;14.80;;;;;;;-2.27;91.77;101149.99;1667471;83;26264;-77
2021/01/11 07:31:41;;;;;;;33.53;14.07;;;;;;;-2.24;91.78;101156.17;1651419;84;26028;-81
2021/01/11 07:34:12;;;;;;;34.45;14.15;;;;;;;-2.18;91.71;101146.20;1705627;82;25865;-78
2021/01/11 07:36:41;;;;;;;36.42;14.90;;;;;;;-2.13;91.62;101147.16;1707888;82;27309;-77
2021/01/11 07:39:15;;;;;;;38.58;15.08;;;;;;;-2.07;91.67;101148.57;1693943;82;25835;-79
2021/01/11 07:41:44;;;;;;;40.35;14.93;;;;;;;-2.04;91.57;101147.30;1708516;82;25948;-81
2021/01/11 07:44:27;;;;;;;35.80;15.05;;;;;;;-1.99;91.66;101149.58;1708917;82;25878;-80
2021/01/11 07:47:07;;;;;;;35.92;14.47;;;;;;;-1.94;91.64;101150.95;1698201;82;26439;-78
2021/01/11 07:49:40;;;;;;;36.47;14.40;;;;;;;-1.90;91.71;101144.89;1704806;82;27444;-77
2021/01/11 07:52:10;;;;;;;38.73;15.25;;;;;;;-1.86;91.71;101147.59;1702608;82;25807;-74
2021/01/11 07:54:37;;;;;;;35.33;15.83;;;;;;;-1.81;91.75;101149.85;1694269;82;26410;-77
2021/01/11 07:57:12;;;;;;;38.25;15.60;;;;;;;-1.79;91.73;101156.02;1692745;82;26636;-76
2021/01/11 07:59:38;;;;;;;37.25;16.25;;;;;;;-1.79;91.66;101153.39;1712265;82;25909;-76
2021/01/11 08:02:11;;;;;;;40.67;15.70;;;;;;;-1.75;91.70;101149.95;1697310;82;27869;-75
2021/01/11 08:04:39;;;;;;;37.30;13.88;;;;;;;-1.70;91.72;101152.20;1692792;82;26376;-74
2021/01/11 08:07:12;;;;;;;39.20;15.93;;;;;;;-1.65;91.65;101142.64;1689037;82;26398;-74
2021/01/11 08:09:40;;;;;;;45.92;17.20;;;;;;;-1.61;91.60;101143.57;1694854;82;26723;-76
2021/01/11 08:12:15;;;;;;;43.73;18.10;;;;;;;-1.57;91.63;101148.02;1712093;82;25870;-78
2021/01/11 08:14:44;;;;;;;51.65;19.40;;;;;;;-1.52;91.49;101153.33;1685604;82;27392;-75
2021/01/11 08:17:18;;;;;;;46.45;18.07;;;;;;;-1.46;91.57;101153.41;1703368;82;25857;-77
2021/01/11 08:19:57;;;;;;;41.65;16.90;;;;;;;-1.43;91.55;101157.40;1711462;82;25970;-76
2021/01/11 08:22:25;;;;;;;39.45;16.50;;;;;;;-1.39;91.55;101157.89;1704241;82;25925;-78
2021/01/11 08:24:53;;;;;;;34.40;16.07;;;;;;;-1.34;91.58;101153.14;1710591;82;26431;-78
2021/01/11 08:27:32;;;;;;;36.53;14.70;;;;;;;-1.26;91.61;101153.67;1709385;82;28200;-78
2021/01/11 08:30:09;;;;;;;33.02;14.38;;;;;;;-1.22;91.52;101155.05;1698515;82;26104;-77
2021/01/11 08:32:36;;;;;;;33.30;14.50;;;;;;;-1.19;91.35;101151.58;1702672;82;25865;-78
2021/01/11 08:35:14;;;;;;;37.25;13.85;;;;;;;-1.15;91.33;101156.01;1702944;82;26403;-76
2021/01/11 08:37:41;;;;;;;34.00;13.18;;;;;;;-1.12;91.40;101158.67;1707658;82;25406;-77
2021/01/11 08:40:19;;;;;;;34.13;14.65;;;;;;;-1.11;91.41;101156.50;1702304;82;27435;-77
2021/01/11 08:42:47;;;;;;;37.05;13.90;;;;;;;-1.10;91.43;101157.83;1711800;82;25903;-75
2021/01/11 08:45:36;;;;;;;34.33;14.70;;;;;;;-1.08;91.31;101149.53;1714524;82;26621;-74
2021/01/11 08:48:14;;;;;;;29.72;13.98;;;;;;;-1.06;90.91;101153.06;1711651;82;25956;-75
2021/01/11 08:50:57;;;;;;;28.92;13.38;;;;;;;-1.02;91.20;101153.55;1703000;82;25793;-76
2021/01/11 08:53:36;;;;;;;34.10;14.23;;;;;;;-0.96;91.27;101151.42;1707601;82;27401;-76
2021/01/11 08:56:09;;;;;;;33.00;12.50;;;;;;;-0.90;91.34;101154.12;1695397;82;25797;-77
2021/01/11 08:58:53;;;;;;;32.05;13.58;;;;;;;-0.82;91.37;101146.31;1714543;82;25804;-77
2021/01/11 09:01:25;;;;;;;33.63;13.88;;;;;;;-0.79;91.36;101151.17;1703379;82;25920;-77
2021/01/11 09:04:03;;;;;;;28.92;12.68;;;;;;;-0.73;91.23;101144.66;1709008;82;26010;-76
2021/01/11 09:06:45;;;;;;;34.18;15.10;;;;;;;-0.64;91.30;101150.88;1713267;82;28396;-76
2021/01/11 09:09:18;;;;;;;32.48;13.28;;;;;;;-0.56;90.53;101150.09;1702097;82;25839;-75
2021/01/11 09:11:47;;;;;;;34.20;13.28;;;;;;;-0.48;90.83;101154.12;1705799;82;25861;-75
2021/01/11 09:14:16;;;;;;;29.80;12.78;;;;;;;-0.45;90.99;101161.61;1705462;82;26246;-76
2021/01/11 09:16:44;;;;;;;31.27;14.18;;;;;;;-0.42;90.91;101166.91;1707324;82;25824;-76
2021/01/11 09:19:18;;;;;;;26.50;12.20;;;;;;;-0.40;90.90;101160.34;1700696;82;27402;-75
2021/01/11 09:21:58;;;;;;;25.92;11.70;;;;;;;-0.39;90.76;101162.11;1701015;82;28219;-74
2021/01/11 09:24:25;;;;;;;31.00;14.20;;;;;;;-0.38;90.81;101156.85;1709716;82;25972;-74
2021/01/11 09:26:53;;;;;;;26.68;12.00;;;;;;;-0.38;90.55;101160.80;1701171;82;26480;-75
2021/01/11 09:29:19;;;;;;;29.92;12.93;;;;;;;-0.35;90.71;101157.31;1689041;82;26037;-75
2021/01/11 09:31:46;;;;;;;32.38;12.37;;;;;;;-0.27;90.74;101154.75;1713048;82;27591;-76
2021/01/11 09:34:12;;;;;;;31.82;13.83;;;;;;;-0.25;90.68;101160.48;1699740;82;25915;-78
2021/01/11 09:36:39;;;;;;;31.93;12.53;;;;;;;-0.24;90.56;101159.61;1700637;82;31013;-76
2021/01/11 09:39:10;;;;;;;31.00;14.03;;;;;;;-0.27;90.27;101160.02;1708640;82;26435;-76
2021/01/11 09:41:53;;;;;;;27.45;12.63;;;;;;;-0.25;90.24;101155.65;1700511;82;26091;-76
2021/01/11 09:44:19;;;;;;;29.10;13.25;;;;;;;-0.21;90.28;101158.75;1693098;82;27282;-76
2021/01/11 09:46:52;;;;;;;28.95;14.03;;;;;;;-0.19;90.26;101153.95;1658388;84;25897;-76
2021/01/11 09:49:19;;;;;;;30.57;13.43;;;;;;;-0.21;90.23;101154.80;1649007;84;25883;-76
2021/01/11 09:51:46;;;;;;;29.75;13.43;;;;;;;-0.21;90.26;101151.73;1659248;84;26585;-76
2021/01/11 09:54:11;;;;;;;30.60;12.33;;;;;;;-0.13;90.31;101152.68;1678753;82;25780;-76
2021/01/11 09:56:41;;;;;;;37.75;13.85;;;;;;;-0.09;90.27;101147.88;1696437;82;27727;-77
2021/01/11 09:59:10;;;;;;;31.55;12.93;;;;;;;-0.10;90.19;101155.78;1693364;82;26053;-76
2021/01/11 10:01:43;;;;;;;25.08;11.78;;;;;;;-0.11;89.95;101153.58;1695438;82;26667;-75
2021/01/11 10:04:12;;;;;;;30.37;12.98;;;;;;;-0.13;89.67;101150.48;1684290;82;26028;-77
2021/01/11 10:06:47;;;;;;;32.90;12.65;;;;;;;-0.11;89.71;101149.63;1694493;82;25940;-76
2021/01/11 10:09:20;;;;;;;27.30;12.53;;;;;;;-0.05;89.84;101144.84;1687471;82;27443;-76
2021/01/11 10:11:50;;;;;;;35.85;12.63;;;;;;;0.04;89.88;101143.55;1691550;82;25844;-77
2021/01/11 10:14:17;;;;;;;27.55;12.58;;;;;;;0.09;89.68;101150.18;1674545;82;25902;-76
2021/01/11 10:16:47;;;;;;;32.95;14.25;;;;;;;0.13;89.76;101144.06;1691769;82;27614;-76
2021/01/11 10:19:23;;;;;;;41.18;12.88;;;;;;;0.18;89.69;101141.90;1684399;82;25468;-76
2021/01/11 10:21:51;;;;;;;27.17;11.57;;;;;;;0.19;89.51;101147.62;1691624;82;27084;-77
2021/01/11 10:24:20;;;;;;;30.85;12.88;;;;;;;0.23;89.54;101141.50;1700312;82;25773;-76
2021/01/11 10:26:48;;;;;;;33.55;13.22;;;;;;;0.29;89.53;101147.25;1685363;82;25869;-76
2021/01/11 10:29:17;;;;;;;29.52;12.33;;;;;;;0.30;89.37;101141.09;1671967;82;25891;-76
2021/01/11 10:31:48;;;;;;;31.73;12.85;;;;;;;0.31;89.34;101135.84;1686431;82;25873;-75
2021/01/11 10:34:16;;;;;;;29.63;13.75;;;;;;;0.35;89.35;101133.22;1696557;82;29165;-76
2021/01/11 10:36:47;;;;;;;31.07;13.70;;;;;;;0.38;89.24;101139.39;1692041;82;25884;-76
2021/01/11 10:39:16;;;;;;;27.70;12.37;;;;;;;0.37;89.15;101130.16;1700445;82;30581;-76
2021/01/11 10:41:42;;;;;;;43.25;17.00;;;;;;;0.30;88.76;101130.55;1694787;82;25885;-77
2021/01/11 10:44:09;;;;;;;49.98;21.10;;;;;;;0.25;88.63;101134.91;1694183;82;25955;-76
2021/01/11 10:46:43;;;;;;;65.52;31.48;;;;;;;0.22;88.79;101124.35;1689714;82;26032;-75
2021/01/11 10:49:09;;;;;;;38.05;16.67;;;;;;;0.22;88.68;101131.83;1697772;82;29657;-76
2021/01/11 10:51:35;;;;;;;35.13;14.43;;;;;;;0.23;88.69;101128.75;1672740;82;31080;-76
2021/01/11 10:54:03;;;;;;;37.67;16.23;;;;;;;0.18;88.54;101129.16;1695373;82;25969;-76
2021/01/11 10:56:29;;;;;;;31.02;15.50;;;;;;;0.14;87.87;101120.34;1679780;82;25858;-75
2021/01/11 10:58:54;;;;;;;39.15;16.12;;;;;;;0.10;88.36;101112.41;1698037;82;25909;-74
2021/01/11 11:01:20;;;;;;;36.38;15.13;;;;;;;0.07;88.37;101117.22;1694382;82;33347;-75
2021/01/11 11:03:46;;;;;;;33.30;14.10;;;;;;;0.06;88.37;101111.50;1694449;82;25757;-74
2021/01/11 11:06:20;;;;;;;32.75;13.90;;;;;;;0.07;88.38;101113.70;1658819;84;25958;-76
2021/01/11 11:08:46;;;;;;;32.33;13.60;;;;;;;0.07;88.32;101110.63;1651968;84;25942;-76
2021/01/11 11:11:12;;;;;;;35.20;14.65;;;;;;;0.07;88.22;101109.31;1676542;82;28255;-74
2021/01/11 11:13:40;;;;;;;31.93;13.60;;;;;;;0.04;88.13;101111.05;1694413;82;25743;-73
2021/01/11 11:16:09;;;;;;;31.93;13.45;;;;;;;0.01;87.99;101110.59;1690508;82;26082;-74
2021/01/11 11:18:35;;;;;;;35.88;14.23;;;;;;;0.00;88.07;101104.44;1689911;82;26468;-74
2021/01/11 11:21:10;;;;;;;36.28;15.43;;;;;;;0.02;88.08;101100.50;1694053;82;25862;-74
2021/01/11 11:23:36;;;;;;;38.17;13.20;;;;;;;0.04;88.01;101098.75;1695706;82;27904;-72
2021/01/11 11:26:04;;;;;;;29.98;12.50;;;;;;;0.06;88.00;101101.40;1691427;82;26085;-73
2021/01/11 11:28:31;;;;;;;38.73;13.35;;;;;;;0.07;87.82;101097.45;1679559;82;25959;-74
2021/01/11 11:30:57;;;;;;;29.98;14.00;;;;;;;0.06;87.80;101094.81;1652221;84;27115;-73